Aeroporto :
LOGIN :

Iscrizione | Disclaimer

   EN    FR    IT 

 










Sommario :    VFR   VFR Marginale   IFR   IFR Intensivo   IFR Molto Intensivo
Visibilità : 
Base nubi : 
>= 8 km
>= 3000ft
5 / 8 km
1000 / 3000 ft
1500m / 5 km
500 / 1000 ft
800 / 1500m
200 / 500 ft
< 800m
< 200 ft
Simboli :   Temporali  Nebbia  Neve Forte  Precipitazioni Forti  Vento > 20 kt
SIGMETs :   Varie  Temporali  Ghiacco  Turbolenza  Onda orograficha  Ceneri Vulcaniche







- Altitudine del aeroporto : 313 ft
- Codice IATA : LEH
- Carte del aeroporto


LFOH - Le Havre Octeville

ULTIMO METAR :
  • 270500Z AUTO 30008KT 270V340 9999 OVC008 12/11 Q1013

METARs OBSOLETI :
  • 270430Z AUTO 30009KT 270V330 9999 BKN008 OVC024 12/11 Q1013
  • 270400Z AUTO 29009KT 250V320 9999 BKN008 OVC017 12/11 Q1013
  • 270330Z AUTO 29009KT 9999 BKN008 OVC030 12/11 Q1013
  • 270300Z AUTO 29010KT 9999 BKN006 OVC026 12/12 Q1013
  • 270230Z AUTO 27009KT 9999 OVC003 13/12 Q1013

TAF TAF LFOH
Valido dal 26 a 12 ore il 27 a 12 ore UTC


261100Z 2612/2712 26012KT 9999 BKN025
TEMPO 2616/2619 4000 RA BKN007
TEMPO 2619/2624 4000 DZ OVC003
ATIS : +33 2 35 54 64 93
Nessun NOTAM noto per questo aeroporto.



MetMap, La meteo Aeronautica in un colpo d'occhio ! - Copyright ORBIFLY Dicembre 2007 - Disclaimer

ORBIFLY MET'MAP TEAM :

Programmazione e sviluppo : Alexandra Zaïnal
Concezione e sviluppo : Baudouin d'Aumeries
Co-Programmazione e sviluppo : Marc-Olivier Méhu
Supporto tecnico e logistico : Manuel Goepfert
Aiuto per la traduzione : Arnaldo La Scala

Contatto : metmap@orbifly.com




FONTI E CREDITI :

   NOAA